This is the latest recevied weather packets stored in our database for station/object CALDNA-WX. If no packets are shown the sender has not sent any weather packets the latest 10 day(s).
| Time | Temp. | Humidity | Pressure | Rain* | Wind** | Luminosity | Snow |
|---|---|---|---|---|---|---|---|
| 1778139044 | 4.44° C | 70% | 985.5 hPa | 0 mm | - | - | - |
| 1778138124 | 4.44° C | 70% | 985.5 hPa | 0 mm | - | - | - |
| 1778137251 | 4.44° C | 70% | 985.5 hPa | 0 mm | - | - | - |
| 1778136324 | 4.44° C | 69% | 986.3 hPa | 0 mm | - | - | - |
| 1778135440 | 4.44° C | 69% | 986.3 hPa | 0 mm | - | - | - |
| 1778134524 | 5° C | 69% | 986.3 hPa | 0 mm | - | - | - |
| 1778133650 | 5° C | 69% | 986.3 hPa | 0 mm | - | - | - |
| 1778132724 | 5° C | 64% | 986.9 hPa | 0 mm | - | - | - |
| 1778131843 | 6.11° C | 64% | 986.8 hPa | 0 mm | - | - | - |
| 1778130924 | 5.56° C | 64% | 986.8 hPa | 0 mm | - | - | - |
| 1778130053 | 5.56° C | 67% | 985.8 hPa | 0 mm | - | - | - |
| 1778129123 | 5.56° C | 58% | 986.6 hPa | 0 mm | - | - | - |
| 1778128239 | 5.56° C | 58% | 986.6 hPa | 0 mm | - | - | - |
| 1778127323 | 6.11° C | 58% | 986.6 hPa | 0 mm | - | - | - |
| 1778126453 | 6.67° C | 58% | 986.6 hPa | 0 mm | - | - | - |
| 1778125524 | 6.67° C | 47% | 987.6 hPa | 0 mm | - | - | - |
| 1778124638 | 6.11° C | 53% | 985.8 hPa | 0 mm | - | - | - |
| 1778123723 | 6.11° C | 53% | 985.8 hPa | 0 mm | - | - | - |
| 1778122852 | 6.11° C | 53% | 985.8 hPa | 0 mm | - | - | - |
| 1778121922 | 6.11° C | 49% | 986.9 hPa | 0 mm | - | - | - |
| 1778121037 | 6.67° C | 48% | 986.6 hPa | 0 mm | - | - | - |
| 1778120122 | 6.67° C | 48% | 986.6 hPa | 0 mm | - | - | - |
| 1778119244 | 6.67° C | 48% | 986.6 hPa | 0 mm | - | - | - |
| 1778118322 | 6.67° C | 45% | 986.2 hPa | 0 mm | - | - | - |
| 1778117438 | 7.22° C | 45% | 986.2 hPa | 0 mm | - | - | - |
* Rain latest hour (hover to see other rain measurements)
** Current wind speed in m/s (hover to see current wind gust speed)